Airfield :
LOGIN :

Register | Disclaimer

   EN    FR    IT 

 










Legend :    VFR   Marginal VFR   IFR   Intensive IFR   Very Intensive IFR
Visi :
Ceiling :
>= 8 km
>= 3000ft
5 to 8 km
1000 to 3000 ft
1500m to 5 km
500 to 1000 ft
800 to 1500m
200 to 500 ft
< 800m
< 200 ft
Symbols :   Thunderstorms  Fog  Heavy snow  Heavy precipitations  Wind > 20 kt
SIGMETs :     Misc.  Thunderstorms  Icing  Turbulence  Mountain Waves  Volcanic Ashes






- Airport Elevation : 584 ft


LFPV - Villacoublay Vélizy

CURRENT METAR :
  • 131030Z AUTO 27017KT 9999 BKN035/// OVC042/// ///TCU 07/03 Q0985 TEMPO SHRA BECMG 27015G30KT FEW015 BKN035

EXPIRED METARs :
  • 131000Z AUTO 27015KT 9999 -RA BKN028/// BKN034/// OVC045/// ///TCU 06/03 Q0985 TEMPO 27020G40KT SHRA
  • 130930Z AUTO 27019G33KT 9999 RA SCT023/// BKN030/// BKN039/// ///TCU 06/03 Q0984 NOSIG
  • 130900Z AUTO 27020KT 9999 -RA FEW014/// OVC023/// ///CB 06/03 Q0983 TEMPO 27020G40KT SHRA
  • 130830Z AUTO 26013KT 9999 -RA FEW015/// SCT027/// BKN036/// ///CB 05/03 Q0983 TEMPO 27020G40KT SHRA
  • 130800Z AUTO 27020KT 240V300 9999 FEW016/// BKN038/// BKN047/// ///CB 05/03 Q0982 TEMPO 27015G40KT BECMG FEW035 SCT080

TAF TAF LFPV
Valid from the 13 at 09:00 until the 14 at 09:00 UTC


130800Z 1309/1409 27015G30KT 9999 FEW015 BKN035
TEMPO 1309/1312 27020G40KT SHRA FEW030TCU
BECMG 1316/1318 27010KT
TEMPO 1322/1404 27020G40KT



MET'MAP, your aeronautical weather chart ! - Copyright ORBIFLY December 2007 - Disclaimer

ORBIFLY MET'MAP TEAM :

Programming & Development : Alexandra Zaïnal
Concept & original design : Baudouin d'Aumeries
Assistance for programming : Marc-Olivier Méhu
Technical & hardware support : Manuel Goepfert

Contact : metmap@orbifly.com




SOURCES & CREDITS :

   NOAA